sensor_id;sensor_type;location;lat;lon;timestamp;pressure;altitude;pressure_sealevel;temperature;humidity
63607;BME280;51327;52.466;-1.938;2022-09-27T08:50:31;98444.38;;;9.23;100.00
63607;BME280;51327;52.466;-1.938;2022-09-27T13:09:38;98331.34;;;11.31;74.25
63607;BME280;51327;52.466;-1.938;2022-09-27T13:12:34;98289.16;;;11.05;73.67
63607;BME280;51327;52.466;-1.938;2022-09-27T13:15:27;98341.22;;;11.40;72.33
63607;BME280;51327;52.466;-1.938;2022-09-27T13:18:01;98290.72;;;11.07;73.25
63607;BME280;51327;52.466;-1.938;2022-09-27T15:43:00;98246.44;;;9.22;92.95
63607;BME280;51327;52.466;-1.938;2022-09-27T15:51:46;98288.53;;;9.49;95.45
63607;BME280;51327;52.466;-1.938;2022-09-27T15:54:18;98249.28;;;9.30;95.63
63607;BME280;51327;52.466;-1.938;2022-09-27T15:56:52;98257.97;;;9.32;95.70
63607;BME280;51327;52.466;-1.938;2022-09-27T15:59:50;98281.94;;;9.32;95.28
63607;BME280;51327;52.466;-1.938;2022-09-27T16:02:38;98253.69;;;9.20;96.40
63607;BME280;51327;52.466;-1.938;2022-09-27T16:05:10;98272.41;;;9.30;96.33
63607;BME280;51327;52.466;-1.938;2022-09-27T16:08:08;98242.94;;;9.10;95.49
63607;BME280;51327;52.466;-1.938;2022-09-27T16:19:40;98252.34;;;8.93;94.71
63607;BME280;51327;52.466;-1.938;2022-09-27T16:22:08;98229.31;;;8.71;94.90
63607;BME280;51327;52.466;-1.938;2022-09-27T16:25:03;98250.81;;;8.80;95.44
63607;BME280;51327;52.466;-1.938;2022-09-27T16:27:56;98255.44;;;8.77;94.99
63607;BME280;51327;52.466;-1.938;2022-09-27T16:30:48;98226.06;;;8.68;94.99
63607;BME280;51327;52.466;-1.938;2022-09-27T16:33:17;98208.91;;;8.61;95.23
63607;BME280;51327;52.466;-1.938;2022-09-27T16:35:48;98232.69;;;8.73;94.69
63607;BME280;51327;52.466;-1.938;2022-09-27T16:38:18;98207.22;;;8.60;94.83
63607;BME280;51327;52.466;-1.938;2022-09-27T16:40:48;98217.03;;;8.59;94.25
63607;BME280;51327;52.466;-1.938;2022-09-27T16:43:16;98249.66;;;8.72;95.27
63607;BME280;51327;52.466;-1.938;2022-09-27T16:45:44;98261.13;;;8.73;94.87
63607;BME280;51327;52.466;-1.938;2022-09-27T16:48:15;98203.75;;;8.36;94.97
63607;BME280;51327;52.466;-1.938;2022-09-27T16:50:42;98217.31;;;8.33;95.19
63607;BME280;51327;52.466;-1.938;2022-09-27T16:53:51;98250.06;;;8.45;95.06
63607;BME280;51327;52.466;-1.938;2022-09-27T16:56:38;98277.38;;;8.59;94.69
63607;BME280;51327;52.466;-1.938;2022-09-27T16:59:40;98259.28;;;8.41;95.08
63607;BME280;51327;52.466;-1.938;2022-09-27T17:02:08;98246.69;;;8.32;94.86
63607;BME280;51327;52.466;-1.938;2022-09-27T17:04:38;98254.41;;;8.35;95.13
63607;BME280;51327;52.466;-1.938;2022-09-27T20:03:25;98326.19;;;6.84;100.00
63607;BME280;51327;52.466;-1.938;2022-09-27T20:06:41;98307.75;;;6.69;100.00
63607;BME280;51327;52.466;-1.938;2022-09-27T20:10:22;98301.56;;;6.58;100.00
63607;BME280;51327;52.466;-1.938;2022-09-27T20:14:31;98283.97;;;6.57;100.00
63607;BME280;51327;52.466;-1.938;2022-09-27T20:21:04;98275.38;;;6.40;100.00
63607;BME280;51327;52.466;-1.938;2022-09-27T20:24:21;98296.56;;;6.53;100.00
63607;BME280;51327;52.466;-1.938;2022-09-27T20:27:16;98297.00;;;6.47;100.00
63607;BME280;51327;52.466;-1.938;2022-09-27T20:29:45;98353.91;;;6.80;100.00
63607;BME280;51327;52.466;-1.938;2022-09-27T20:32:13;98327.53;;;6.65;100.00
63607;BME280;51327;52.466;-1.938;2022-09-27T20:34:39;98334.75;;;6.63;100.00
63607;BME280;51327;52.466;-1.938;2022-09-27T20:37:07;98308.91;;;6.54;100.00
63607;BME280;51327;52.466;-1.938;2022-09-27T20:39:37;98326.91;;;6.62;100.00
63607;BME280;51327;52.466;-1.938;2022-09-27T20:42:03;98311.31;;;6.57;100.00
63607;BME280;51327;52.466;-1.938;2022-09-27T20:44:29;98291.38;;;6.52;100.00
63607;BME280;51327;52.466;-1.938;2022-09-27T20:46:58;98322.34;;;6.88;100.00
63607;BME280;51327;52.466;-1.938;2022-09-27T20:49:26;98307.63;;;6.84;100.00
63607;BME280;51327;52.466;-1.938;2022-09-27T20:51:52;98288.19;;;6.83;100.00
63607;BME280;51327;52.466;-1.938;2022-09-27T20:54:18;98336.81;;;7.08;100.00
63607;BME280;51327;52.466;-1.938;2022-09-27T20:56:49;98343.09;;;7.07;100.00
63607;BME280;51327;52.466;-1.938;2022-09-27T20:59:17;98315.59;;;6.84;100.00
63607;BME280;51327;52.466;-1.938;2022-09-27T21:01:44;98322.53;;;6.98;100.00
63607;BME280;51327;52.466;-1.938;2022-09-27T21:04:14;98308.69;;;6.81;100.00
63607;BME280;51327;52.466;-1.938;2022-09-27T21:06:43;98320.81;;;6.97;100.00
63607;BME280;51327;52.466;-1.938;2022-09-27T21:09:10;98300.41;;;6.86;100.00
63607;BME280;51327;52.466;-1.938;2022-09-27T21:11:41;98296.44;;;6.92;100.00
63607;BME280;51327;52.466;-1.938;2022-09-27T21:14:11;98299.59;;;6.97;100.00
63607;BME280;51327;52.466;-1.938;2022-09-27T21:16:39;98296.44;;;6.92;100.00
63607;BME280;51327;52.466;-1.938;2022-09-27T21:19:06;98321.44;;;7.00;100.00
63607;BME280;51327;52.466;-1.938;2022-09-27T21:21:34;98283.06;;;6.69;100.00
63607;BME280;51327;52.466;-1.938;2022-09-27T21:24:01;98299.88;;;6.81;100.00
63607;BME280;51327;52.466;-1.938;2022-09-27T21:26:30;98297.56;;;6.76;100.00
63607;BME280;51327;52.466;-1.938;2022-09-27T21:28:58;98309.66;;;6.80;100.00
63607;BME280;51327;52.466;-1.938;2022-09-27T21:31:31;98264.75;;;6.53;100.00
63607;BME280;51327;52.466;-1.938;2022-09-27T21:33:59;98272.72;;;6.53;100.00
63607;BME280;51327;52.466;-1.938;2022-09-27T21:36:32;98293.38;;;6.61;100.00
63607;BME280;51327;52.466;-1.938;2022-09-27T21:39:01;98330.22;;;6.77;100.00
63607;BME280;51327;52.466;-1.938;2022-09-27T21:41:31;98302.28;;;6.60;100.00
63607;BME280;51327;52.466;-1.938;2022-09-27T21:43:57;98322.09;;;6.67;100.00
63607;BME280;51327;52.466;-1.938;2022-09-27T21:46:25;98341.91;;;6.74;100.00
63607;BME280;51327;52.466;-1.938;2022-09-27T21:48:55;98342.88;;;6.73;100.00
63607;BME280;51327;52.466;-1.938;2022-09-27T21:51:25;98311.75;;;6.51;100.00
63607;BME280;51327;52.466;-1.938;2022-09-27T21:53:59;98328.81;;;6.60;100.00
63607;BME280;51327;52.466;-1.938;2022-09-27T21:56:34;98330.53;;;6.61;100.00
63607;BME280;51327;52.466;-1.938;2022-09-27T21:59:00;98340.91;;;6.64;100.00
63607;BME280;51327;52.466;-1.938;2022-09-27T22:01:29;98308.91;;;6.41;100.00
63607;BME280;51327;52.466;-1.938;2022-09-27T22:03:57;98307.00;;;6.43;100.00
63607;BME280;51327;52.466;-1.938;2022-09-27T22:06:29;98306.25;;;6.54;100.00
63607;BME280;51327;52.466;-1.938;2022-09-27T22:09:05;98315.88;;;6.55;100.00
63607;BME280;51327;52.466;-1.938;2022-09-27T22:11:37;98343.97;;;6.71;100.00
63607;BME280;51327;52.466;-1.938;2022-09-27T22:14:03;98349.38;;;6.69;100.00
63607;BME280;51327;52.466;-1.938;2022-09-27T22:16:36;98339.72;;;6.68;100.00
63607;BME280;51327;52.466;-1.938;2022-09-27T22:19:02;98335.50;;;6.65;100.00
63607;BME280;51327;52.466;-1.938;2022-09-27T22:21:31;98329.78;;;6.59;100.00
63607;BME280;51327;52.466;-1.938;2022-09-27T22:24:02;98305.09;;;6.45;100.00
63607;BME280;51327;52.466;-1.938;2022-09-27T22:26:32;98333.47;;;6.56;100.00
63607;BME280;51327;52.466;-1.938;2022-09-27T22:29:03;98285.94;;;6.29;100.00
63607;BME280;51327;52.466;-1.938;2022-09-27T22:31:34;98329.16;;;6.55;100.00
63607;BME280;51327;52.466;-1.938;2022-09-27T22:34:06;98303.06;;;6.49;100.00
63607;BME280;51327;52.466;-1.938;2022-09-27T22:36:33;98310.97;;;6.62;100.00
63607;BME280;51327;52.466;-1.938;2022-09-27T22:38:59;98308.22;;;6.63;100.00
63607;BME280;51327;52.466;-1.938;2022-09-27T22:41:27;98321.50;;;6.63;100.00
63607;BME280;51327;52.466;-1.938;2022-09-27T22:43:54;98321.59;;;6.62;100.00
63607;BME280;51327;52.466;-1.938;2022-09-27T22:46:20;98312.59;;;6.52;100.00
63607;BME280;51327;52.466;-1.938;2022-09-27T22:48:53;98302.78;;;6.41;100.00
63607;BME280;51327;52.466;-1.938;2022-09-27T22:51:20;98312.50;;;6.40;100.00
63607;BME280;51327;52.466;-1.938;2022-09-27T22:53:46;98321.75;;;6.35;100.00
63607;BME280;51327;52.466;-1.938;2022-09-27T22:56:16;98329.81;;;6.33;100.00
63607;BME280;51327;52.466;-1.938;2022-09-27T22:58:53;98314.16;;;6.17;100.00
63607;BME280;51327;52.466;-1.938;2022-09-27T23:01:23;98299.44;;;6.00;100.00
63607;BME280;51327;52.466;-1.938;2022-09-27T23:03:51;98361.13;;;6.28;100.00
63607;BME280;51327;52.466;-1.938;2022-09-27T23:06:24;98324.03;;;6.02;100.00
63607;BME280;51327;52.466;-1.938;2022-09-27T23:08:50;98368.84;;;6.31;100.00
63607;BME280;51327;52.466;-1.938;2022-09-27T23:11:18;98324.34;;;6.11;100.00
63607;BME280;51327;52.466;-1.938;2022-09-27T23:13:47;98341.63;;;6.16;100.00
63607;BME280;51327;52.466;-1.938;2022-09-27T23:16:16;98293.28;;;5.87;100.00
63607;BME280;51327;52.466;-1.938;2022-09-27T23:18:43;98324.22;;;5.99;100.00
63607;BME280;51327;52.466;-1.938;2022-09-27T23:21:13;98332.09;;;6.01;100.00
63607;BME280;51327;52.466;-1.938;2022-09-27T23:23:56;98296.47;;;5.79;100.00
63607;BME280;51327;52.466;-1.938;2022-09-27T23:26:29;98361.03;;;6.17;100.00
63607;BME280;51327;52.466;-1.938;2022-09-27T23:29:10;98354.97;;;6.15;100.00
63607;BME280;51327;52.466;-1.938;2022-09-27T23:31:46;98332.00;;;6.02;100.00
63607;BME280;51327;52.466;-1.938;2022-09-27T23:34:31;98281.09;;;5.84;100.00
63607;BME280;51327;52.466;-1.938;2022-09-27T23:37:11;98292.84;;;5.93;100.00
63607;BME280;51327;52.466;-1.938;2022-09-27T23:40:28;98313.53;;;6.01;100.00
63607;BME280;51327;52.466;-1.938;2022-09-27T23:43:36;98328.47;;;6.15;100.00
63607;BME280;51327;52.466;-1.938;2022-09-27T23:46:11;98338.22;;;6.27;100.00
63607;BME280;51327;52.466;-1.938;2022-09-27T23:48:39;98288.34;;;5.95;100.00
63607;BME280;51327;52.466;-1.938;2022-09-27T23:51:12;98283.97;;;5.94;100.00
63607;BME280;51327;52.466;-1.938;2022-09-27T23:53:44;98292.66;;;5.96;100.00
63607;BME280;51327;52.466;-1.938;2022-09-27T23:56:15;98277.28;;;5.89;100.00
63607;BME280;51327;52.466;-1.938;2022-09-27T23:58:45;98324.47;;;6.09;100.00
